Time;durP1;ratioP1;P1;durP2;ratioP2;P2;SDS_P1;SDS_P2;PMS_P1;PMS_P2;Temp;Humidity;BMP_temperature;BMP_pressure;BME280_temperature;BME280_humidity;BME280_pressure;Samples;Min_cycle;Max_cycle;Signal;HPM_P1;HPM_P2
2022/10/01 00:00:50;;;;;;;8.63;5.40;;;;;;;11.27;100.00;100194.31;5093362;28;20067;-55
2022/10/01 00:03:17;;;;;;;7.40;5.63;;;;;;;11.30;100.00;100185.53;5093082;28;20506;-56
2022/10/01 00:05:42;;;;;;;8.55;5.55;;;;;;;11.26;100.00;100173.41;5093397;28;20024;-56
2022/10/01 00:08:08;;;;;;;6.35;5.47;;;;;;;11.24;100.00;100180.47;5093202;28;20044;-55
2022/10/01 00:10:33;;;;;;;6.25;5.60;;;;;;;11.15;100.00;100176.31;5092990;28;20040;-56
2022/10/01 00:12:59;;;;;;;7.53;5.55;;;;;;;11.19;100.00;100164.03;5092906;28;20032;-55
2022/10/01 00:15:27;;;;;;;7.43;6.30;;;;;;;11.23;100.00;100170.91;5092983;28;20040;-55
2022/10/01 00:17:53;;;;;;;7.10;5.85;;;;;;;11.13;100.00;100149.31;5093044;28;20047;-55
2022/10/01 00:20:18;;;;;;;6.80;5.82;;;;;;;11.13;100.00;100144.09;5093126;28;20439;-55
2022/10/01 00:22:44;;;;;;;7.82;5.75;;;;;;;11.08;100.00;100132.91;5092940;28;20051;-56
2022/10/01 00:25:10;;;;;;;11.10;5.93;;;;;;;11.23;100.00;100140.34;5092891;28;20047;-55
2022/10/01 00:27:35;;;;;;;7.35;5.85;;;;;;;11.26;100.00;100134.97;5091981;28;20052;-53
2022/10/01 00:30:03;;;;;;;6.78;6.07;;;;;;;11.17;100.00;100135.25;5093031;28;20359;-55
2022/10/01 00:32:31;;;;;;;6.43;5.72;;;;;;;11.15;100.00;100139.66;5092815;28;20044;-55
2022/10/01 00:34:57;;;;;;;8.10;5.60;;;;;;;11.26;100.00;100129.75;5092848;28;20031;-54
2022/10/01 00:37:22;;;;;;;7.20;5.57;;;;;;;11.20;100.00;100123.84;5092643;28;20032;-57
2022/10/01 00:39:47;;;;;;;7.78;5.25;;;;;;;11.32;100.00;100107.78;5092567;28;20043;-55
2022/10/01 00:42:25;;;;;;;6.32;5.10;;;;;;;11.30;100.00;100110.44;5092075;28;20684;-56
2022/10/01 00:44:52;;;;;;;6.47;5.20;;;;;;;11.26;100.00;100134.13;5092570;28;20114;-54
2022/10/01 00:47:52;;;;;;;6.55;5.50;;;;;;;11.23;100.00;100129.84;5092801;28;20035;-55
2022/10/01 00:50:33;;;;;;;8.82;5.05;;;;;;;11.30;100.00;100131.38;5068929;28;20056;-56
2022/10/01 00:53:04;;;;;;;6.68;5.38;;;;;;;11.27;100.00;100149.81;5092681;28;20066;-54
2022/10/01 00:55:36;;;;;;;7.13;5.22;;;;;;;11.25;100.00;100146.38;5092413;28;20043;-54
2022/10/01 00:58:03;;;;;;;7.00;5.07;;;;;;;11.27;100.00;100152.41;5092268;28;20036;-54
2022/10/01 01:00:30;;;;;;;5.47;4.72;;;;;;;11.23;100.00;100136.84;5092238;28;20047;-54
2022/10/01 01:02:55;;;;;;;6.88;5.38;;;;;;;11.19;100.00;100127.34;5092183;28;20036;-55
2022/10/01 01:05:21;;;;;;;6.10;5.45;;;;;;;11.18;100.00;100136.97;5092040;28;20370;-55
2022/10/01 01:07:51;;;;;;;6.03;4.93;;;;;;;11.12;100.00;100124.03;5092257;28;20468;-55
2022/10/01 01:10:23;;;;;;;8.68;5.10;;;;;;;11.06;100.00;100143.41;5092101;28;20036;-54
2022/10/01 01:12:49;;;;;;;;;;;;;;;11.22;100.00;100143.00;5092515;28;20036;-54
2022/10/01 01:15:25;;;;;;;6.80;4.78;;;;;;;11.14;100.00;100094.28;5091794;28;19916;-54
2022/10/01 01:17:59;;;;;;;7.75;4.95;;;;;;;11.06;100.00;100088.41;5092029;28;20043;-54
2022/10/01 01:20:46;;;;;;;5.85;5.18;;;;;;;10.98;100.00;100098.22;5091673;28;20107;-53
2022/10/01 01:23:14;;;;;;;7.18;5.00;;;;;;;10.95;100.00;100084.34;5092055;28;20038;-55
2022/10/01 01:26:09;;;;;;;6.10;4.53;;;;;;;11.01;100.00;100037.94;5091989;28;20036;-54
2022/10/01 01:28:44;;;;;;;6.00;4.30;;;;;;;11.09;100.00;100015.00;5046490;28;20066;-54
2022/10/01 01:31:15;;;;;;;5.68;4.22;;;;;;;10.99;100.00;100008.31;5091887;28;20032;-54
2022/10/01 01:33:45;;;;;;;7.50;4.78;;;;;;;10.91;100.00;99983.28;5091807;28;20036;-54
2022/10/01 01:36:15;;;;;;;5.78;4.30;;;;;;;11.00;100.00;99962.06;5091466;28;20040;-54
2022/10/01 01:38:50;;;;;;;6.13;4.40;;;;;;;11.03;100.00;99957.59;5091488;28;20044;-54
2022/10/01 01:41:19;;;;;;;7.10;4.20;;;;;;;10.89;100.00;99917.88;5091690;28;20031;-53
2022/10/01 01:43:47;;;;;;;5.60;3.83;;;;;;;10.92;100.00;99956.16;5091334;28;20047;-53
2022/10/01 01:46:16;;;;;;;4.70;4.10;;;;;;;10.83;100.00;100033.22;5091620;28;20044;-53
2022/10/01 01:48:46;;;;;;;4.88;4.07;;;;;;;10.75;100.00;100007.22;5091707;28;20063;-55
2022/10/01 01:51:19;;;;;;;4.47;4.05;;;;;;;10.78;100.00;100015.00;5091651;28;20036;-55
2022/10/01 01:53:44;;;;;;;6.05;4.00;;;;;;;10.78;100.00;100001.91;5091806;28;20063;-54
2022/10/01 01:56:10;;;;;;;4.55;3.65;;;;;;;10.75;100.00;99996.75;5091667;28;20082;-55
2022/10/01 01:58:37;;;;;;;4.63;3.90;;;;;;;10.81;100.00;99999.22;5091595;28;20032;-56
2022/10/01 02:01:03;;;;;;;4.82;3.78;;;;;;;10.89;100.00;100008.63;5091551;28;20856;-56
2022/10/01 02:03:29;;;;;;;4.60;3.63;;;;;;;10.84;100.00;100007.91;5091463;28;20130;-55
2022/10/01 02:06:23;;;;;;;5.85;3.85;;;;;;;10.89;100.00;100016.50;5091396;28;20063;-55
2022/10/01 02:08:58;;;;;;;7.40;3.88;;;;;;;10.66;100.00;100011.88;5091574;28;20035;-55
2022/10/01 02:11:31;;;;;;;5.20;3.60;;;;;;;10.62;100.00;100003.25;5091355;28;20122;-55
2022/10/01 02:14:05;;;;;;;5.63;3.08;;;;;;;10.60;100.00;100015.50;5091403;28;20063;-55
2022/10/01 02:16:55;;;;;;;3.42;2.83;;;;;;;10.68;100.00;100007.47;5091460;28;20056;-54
2022/10/01 02:19:34;;;;;;;3.90;2.80;;;;;;;10.61;100.00;100021.59;5091565;28;20770;-56
2022/10/01 02:22:04;;;;;;;3.65;3.28;;;;;;;10.60;100.00;99996.34;5091099;28;20040;-55
2022/10/01 02:24:43;;;;;;;3.55;3.25;;;;;;;10.61;100.00;100008.50;5091324;28;20036;-56
2022/10/01 02:27:25;;;;;;;4.20;2.97;;;;;;;10.57;100.00;100014.72;5091315;28;20439;-54
2022/10/01 02:29:52;;;;;;;5.28;2.85;;;;;;;10.58;100.00;99996.38;5091542;28;20075;-56
2022/10/01 02:32:19;;;;;;;3.60;2.95;;;;;;;10.60;100.00;99994.56;5091556;28;20051;-56
2022/10/01 02:34:48;;;;;;;4.00;2.50;;;;;;;10.65;100.00;99989.22;5091155;28;20089;-55
2022/10/01 02:37:15;;;;;;;4.45;2.33;;;;;;;10.66;100.00;99994.41;5091280;28;20086;-55
2022/10/01 02:39:42;;;;;;;2.83;2.10;;;;;;;10.62;100.00;99977.09;5091274;28;20023;-56
2022/10/01 02:42:10;;;;;;;3.28;2.60;;;;;;;10.67;100.00;99958.66;5091096;28;20051;-56
2022/10/01 02:44:41;;;;;;;2.67;2.42;;;;;;;10.68;100.00;99979.53;5091139;28;20040;-56
2022/10/01 02:47:13;;;;;;;3.72;2.20;;;;;;;10.67;100.00;99967.34;5090731;28;20462;-56
2022/10/01 02:49:40;;;;;;;3.15;2.58;;;;;;;10.65;100.00;99963.06;5091075;28;20757;-56
2022/10/01 02:52:24;;;;;;;3.15;2.35;;;;;;;10.66;100.00;99972.63;5094454;28;20164;-55
2022/10/01 02:55:12;;;;;;;4.90;2.60;;;;;;;10.65;100.00;99970.91;5094780;28;20047;-56
2022/10/01 02:57:38;;;;;;;2.50;2.30;;;;;;;10.78;100.00;99965.28;5094538;28;20046;-56
2022/10/01 03:00:07;;;;;;;3.50;2.30;;;;;;;10.68;100.00;99974.31;5094525;28;20047;-55
2022/10/01 03:02:33;;;;;;;4.03;1.98;;;;;;;10.73;100.00;99969.81;5094609;28;20040;-56
2022/10/01 03:04:58;;;;;;;3.42;2.00;;;;;;;10.81;100.00;99967.81;5094660;28;20040;-56
2022/10/01 03:07:25;;;;;;;2.70;2.08;;;;;;;10.84;100.00;99972.13;5094662;28;20036;-56
2022/10/01 03:09:51;;;;;;;4.47;2.10;;;;;;;10.84;100.00;99955.56;5094378;28;20451;-56
2022/10/01 03:12:17;;;;;;;3.22;2.28;;;;;;;10.85;100.00;99965.13;5094384;28;20128;-55
2022/10/01 03:14:44;;;;;;;1.88;1.77;;;;;;;10.87;100.00;99960.69;5094584;28;20036;-56
2022/10/01 03:17:10;;;;;;;1.98;1.77;;;;;;;10.88;100.00;99967.66;5094010;28;20036;-57
2022/10/01 03:19:35;;;;;;;2.30;2.05;;;;;;;10.89;100.00;99961.53;5094445;28;20028;-55
2022/10/01 03:22:01;;;;;;;2.70;1.90;;;;;;;10.93;100.00;99957.88;5094267;28;20409;-55
2022/10/01 03:24:26;;;;;;;1.75;1.65;;;;;;;10.90;100.00;99955.38;5094195;28;20036;-56
2022/10/01 03:26:53;;;;;;;3.53;2.00;;;;;;;10.88;100.00;99946.72;5094105;28;20560;-56
2022/10/01 03:29:18;;;;;;;2.10;1.50;;;;;;;10.94;100.00;99949.13;5094069;28;20064;-56
2022/10/01 03:31:44;;;;;;;1.70;1.60;;;;;;;11.00;100.00;99956.81;5094184;28;20457;-56
2022/10/01 03:34:10;;;;;;;2.40;1.80;;;;;;;10.92;100.00;99957.03;5094140;28;20097;-56
2022/10/01 03:36:36;;;;;;;1.92;1.50;;;;;;;10.97;100.00;99954.28;5094081;28;20078;-55
2022/10/01 03:39:02;;;;;;;2.17;1.60;;;;;;;10.99;100.00;99960.34;5093950;28;20075;-56
2022/10/01 03:41:27;;;;;;;2.05;1.50;;;;;;;10.97;100.00;99952.53;5093796;28;20107;-56
2022/10/01 03:43:52;;;;;;;2.90;1.45;;;;;;;11.04;100.00;99958.44;5093552;28;20165;-56
2022/10/01 03:46:18;;;;;;;1.27;1.17;;;;;;;11.06;100.00;99946.19;5094029;28;20071;-56
2022/10/01 03:48:43;;;;;;;1.63;1.27;;;;;;;11.06;100.00;99956.66;5093717;28;20040;-56
2022/10/01 03:51:08;;;;;;;2.65;1.35;;;;;;;11.11;100.00;99960.81;5093205;28;20051;-56
2022/10/01 03:53:33;;;;;;;1.50;1.13;;;;;;;11.15;100.00;99962.47;5093029;28;20059;-56
2022/10/01 03:56:00;;;;;;;1.30;1.20;;;;;;;11.16;100.00;99963.31;5093472;28;20039;-55
2022/10/01 03:58:26;;;;;;;1.50;1.30;;;;;;;11.13;100.00;99956.41;5093363;28;20032;-56
2022/10/01 04:00:54;;;;;;;1.30;0.90;;;;;;;11.15;100.00;99958.97;5093467;28;20113;-56
2022/10/01 04:03:19;;;;;;;1.20;1.10;;;;;;;11.14;100.00;99958.13;5093548;28;20036;-55
2022/10/01 04:05:45;;;;;;;1.10;0.95;;;;;;;11.18;100.00;99965.91;5093632;28;20042;-55
2022/10/01 04:08:11;;;;;;;1.85;0.90;;;;;;;11.19;100.00;99962.38;5092827;28;20047;-56
2022/10/01 04:10:36;;;;;;;1.48;1.00;;;;;;;11.26;100.00;99962.13;5093308;28;20032;-56
2022/10/01 04:13:02;;;;;;;1.40;1.10;;;;;;;11.26;100.00;99975.22;5093219;28;20077;-56
2022/10/01 04:15:28;;;;;;;1.40;0.90;;;;;;;11.27;100.00;99976.06;5093280;28;20092;-55
2022/10/01 04:17:53;;;;;;;1.00;0.80;;;;;;;11.30;100.00;99982.09;5093191;28;20122;-56
2022/10/01 04:20:19;;;;;;;1.42;1.00;;;;;;;11.32;100.00;99977.66;5093148;28;20043;-56
2022/10/01 04:22:45;;;;;;;1.52;1.00;;;;;;;11.43;100.00;99975.56;5092972;28;20087;-55
2022/10/01 04:25:10;;;;;;;1.45;0.80;;;;;;;11.38;100.00;99979.25;5092973;28;20040;-55
2022/10/01 04:27:40;;;;;;;0.80;0.80;;;;;;;11.47;100.00;99990.28;5093065;28;20358;-56
2022/10/01 04:30:07;;;;;;;1.73;1.02;;;;;;;11.44;100.00;99987.75;5092981;28;20039;-56
2022/10/01 04:32:33;;;;;;;1.17;0.90;;;;;;;11.42;100.00;99992.22;5093048;28;20048;-55
2022/10/01 04:35:01;;;;;;;1.23;0.80;;;;;;;11.49;100.00;99983.25;5092863;28;20509;-55
2022/10/01 04:37:27;;;;;;;1.65;1.10;;;;;;;11.54;100.00;99987.50;5092822;28;20031;-56
2022/10/01 04:39:52;;;;;;;2.65;1.00;;;;;;;11.52;100.00;99992.78;5092398;28;20028;-55
2022/10/01 04:42:18;;;;;;;1.80;1.00;;;;;;;11.55;100.00;99992.69;5092490;28;20096;-56
2022/10/01 04:44:43;;;;;;;0.98;0.80;;;;;;;11.52;100.00;99996.25;5092670;28;20032;-56
2022/10/01 04:47:08;;;;;;;1.42;1.15;;;;;;;11.52;100.00;99996.25;5092679;28;20750;-55
2022/10/01 04:49:34;;;;;;;1.33;1.10;;;;;;;11.65;100.00;100003.72;5092759;28;20028;-57
2022/10/01 04:51:59;;;;;;;2.90;1.17;;;;;;;11.64;100.00;99992.38;5092507;28;20650;-56
2022/10/01 04:54:25;;;;;;;3.05;1.17;;;;;;;11.61;100.00;99995.09;5092210;28;20139;-54
2022/10/01 04:56:51;;;;;;;1.73;1.40;;;;;;;11.75;100.00;99995.53;5092395;28;20031;-57
2022/10/01 04:59:17;;;;;;;2.60;1.10;;;;;;;11.69;100.00;99995.72;5092504;28;20039;-56
2022/10/01 05:01:42;;;;;;;3.25;1.50;;;;;;;11.80;100.00;100001.50;5092425;28;20032;-56
2022/10/01 05:04:08;;;;;;;2.03;1.50;;;;;;;11.76;100.00;100004.31;5092339;28;20036;-57
2022/10/01 05:06:33;;;;;;;1.80;1.30;;;;;;;11.81;100.00;100010.22;5092313;28;20362;-57
2022/10/01 05:08:59;;;;;;;2.30;1.40;;;;;;;11.76;100.00;100013.03;5092185;28;20028;-56
2022/10/01 05:11:24;;;;;;;2.88;1.70;;;;;;;11.84;100.00;100015.38;5091811;28;20102;-54
2022/10/01 05:13:50;;;;;;;2.53;1.90;;;;;;;11.78;100.00;100015.56;5091814;28;20036;-57
2022/10/01 05:16:15;;;;;;;2.38;1.90;;;;;;;11.77;100.00;100021.75;5092190;28;20036;-59
2022/10/01 05:18:42;;;;;;;2.50;1.77;;;;;;;11.85;100.00;100031.06;5092063;28;20416;-56
2022/10/01 05:21:10;;;;;;;2.45;1.90;;;;;;;11.84;100.00;100024.09;5091803;28;20046;-54
2022/10/01 05:23:35;;;;;;;2.22;1.90;;;;;;;11.84;100.00;100029.34;5091892;28;20036;-55
2022/10/01 05:26:03;;;;;;;2.20;2.00;;;;;;;11.78;100.00;100041.78;5091919;28;20047;-55
2022/10/01 05:28:28;;;;;;;2.53;2.10;;;;;;;11.77;100.00;100035.72;5091836;28;20024;-55
2022/10/01 05:30:53;;;;;;;2.55;2.35;;;;;;;11.81;100.00;100047.78;5092016;28;20042;-55
2022/10/01 05:33:18;;;;;;;3.10;2.50;;;;;;;11.88;100.00;100056.34;5091491;28;20031;-55
2022/10/01 05:35:44;;;;;;;2.67;2.45;;;;;;;11.85;100.00;100053.81;5091793;28;20070;-56
2022/10/01 05:38:09;;;;;;;4.28;2.63;;;;;;;11.84;100.00;100055.56;5091561;28;20043;-57
2022/10/01 05:40:35;;;;;;;2.88;2.60;;;;;;;11.85;100.00;100053.81;5091810;28;20031;-56
2022/10/01 05:43:01;;;;;;;4.75;3.22;;;;;;;11.85;100.00;100053.81;5091544;28;20455;-55
2022/10/01 05:45:28;;;;;;;3.63;2.88;;;;;;;11.83;100.00;100058.22;5091629;28;20115;-54
2022/10/01 05:47:58;;;;;;;4.07;3.20;;;;;;;11.82;100.00;100053.91;5091728;28;20108;-56
2022/10/01 05:50:24;;;;;;;3.50;3.20;;;;;;;11.91;100.00;100058.88;5091278;28;20035;-57
2022/10/01 05:52:53;;;;;;;6.40;3.90;;;;;;;11.91;100.00;100066.72;5097434;28;20032;-56
2022/10/01 05:55:19;;;;;;;4.88;3.40;;;;;;;11.90;100.00;100074.66;5111807;28;20040;-54
2022/10/01 05:57:55;;;;;;;3.63;3.28;;;;;;;11.98;100.00;100075.25;5112013;28;20115;-57
2022/10/01 06:00:21;;;;;;;7.03;4.18;;;;;;;11.93;100.00;100072.78;5111994;28;20031;-56
2022/10/01 06:02:51;;;;;;;5.10;3.97;;;;;;;11.91;100.00;100087.72;5111939;28;20039;-57
2022/10/01 06:05:17;;;;;;;5.78;4.30;;;;;;;11.91;100.00;100084.22;5111729;28;20028;-57
2022/10/01 06:07:43;;;;;;;6.18;4.22;;;;;;;11.92;100.00;100081.56;5111911;28;20100;-56
2022/10/01 06:10:08;;;;;;;6.00;4.25;;;;;;;11.97;100.00;100070.91;5111867;28;20050;-56
2022/10/01 06:12:33;;;;;;;4.75;4.22;;;;;;;11.89;100.00;100080.78;5112124;28;20042;-55
2022/10/01 06:14:58;;;;;;;4.75;4.25;;;;;;;11.89;100.00;100083.41;5112011;28;20059;-57
2022/10/01 06:17:24;;;;;;;5.82;4.25;;;;;;;11.83;100.00;100081.81;5111968;28;20335;-56
2022/10/01 06:19:50;;;;;;;7.10;5.30;;;;;;;11.79;100.00;100085.44;5111993;28;20042;-55
2022/10/01 06:22:16;;;;;;;5.15;4.53;;;;;;;11.73;100.00;100091.72;5112010;28;20028;-54
2022/10/01 06:24:41;;;;;;;6.88;5.40;;;;;;;11.75;100.00;100091.66;5111696;28;20353;-56
2022/10/01 06:27:06;;;;;;;10.23;5.40;;;;;;;11.79;100.00;100093.31;5115269;28;20039;-55
2022/10/01 06:29:31;;;;;;;6.88;5.80;;;;;;;11.84;100.00;100096.66;5115890;28;20036;-56
2022/10/01 06:31:57;;;;;;;9.63;5.38;;;;;;;11.89;100.00;100099.16;5115735;28;20074;-57
2022/10/01 06:34:22;;;;;;;8.25;5.75;;;;;;;11.92;100.00;100094.66;5115701;28;20410;-57
2022/10/01 06:36:48;;;;;;;6.50;5.72;;;;;;;11.97;100.00;100092.75;5115321;28;20043;-56
2022/10/01 06:39:13;;;;;;;8.35;7.07;;;;;;;12.03;100.00;100095.19;5115064;28;20038;-56
2022/10/01 06:41:39;;;;;;;7.65;5.68;;;;;;;12.04;100.00;100106.53;5115113;28;20039;-54
2022/10/01 06:44:05;;;;;;;8.30;6.80;;;;;;;12.07;100.00;100099.44;5115241;28;20065;-56
2022/10/01 06:46:31;;;;;;;9.20;7.03;;;;;;;12.17;100.00;100107.84;5115204;28;20027;-56
2022/10/01 06:48:56;;;;;;;8.40;6.68;;;;;;;12.24;100.00;100106.75;5115209;28;20361;-56
2022/10/01 06:52:47;;;;;;;10.93;6.82;;;;;;;12.32;100.00;100109.13;5115479;28;20134;-54
2022/10/01 06:54:07;;;;;;;7.97;7.18;;;;;;;12.36;100.00;100111.59;5114881;28;20050;-56
2022/10/01 06:56:34;;;;;;;9.77;7.60;;;;;;;12.45;100.00;100118.34;5115272;28;20031;-56
2022/10/01 06:58:59;;;;;;;9.95;7.47;;;;;;;12.55;100.00;100117.97;5115239;28;20135;-56
2022/10/01 07:01:24;;;;;;;8.23;6.55;;;;;;;12.58;100.00;100117.03;5115047;28;20058;-57
2022/10/01 07:03:51;;;;;;;10.90;7.25;;;;;;;12.66;100.00;100116.75;5114714;28;20616;-56
2022/10/01 07:06:17;;;;;;;10.65;7.07;;;;;;;12.73;100.00;100108.63;5114968;28;20114;-56
2022/10/01 07:08:42;;;;;;;8.10;7.28;;;;;;;12.73;100.00;100127.00;5115010;28;20099;-57
2022/10/01 07:11:07;;;;;;;9.95;7.75;;;;;;;12.77;100.00;100130.38;5114949;28;20073;-56
2022/10/01 07:13:33;;;;;;;12.65;7.80;;;;;;;12.80;100.00;100130.28;5114726;28;20028;-56
2022/10/01 07:15:58;;;;;;;9.45;7.45;;;;;;;12.79;100.00;100123.31;5114728;28;20038;-55
2022/10/01 07:18:23;;;;;;;11.15;8.02;;;;;;;12.83;100.00;100124.91;5114717;28;20027;-56
2022/10/01 07:20:48;;;;;;;11.07;7.85;;;;;;;12.92;100.00;100134.25;5114611;28;20045;-57
2022/10/01 07:23:15;;;;;;;10.70;8.10;;;;;;;13.01;100.00;100139.19;5114468;28;20035;-57
2022/10/01 07:25:41;;;;;;;10.43;8.32;;;;;;;13.15;100.00;100147.50;5114749;28;20091;-58
2022/10/01 07:28:17;;;;;;;9.35;7.47;;;;;;;13.24;100.00;100131.38;5114729;28;20118;-56
2022/10/01 07:30:56;;;;;;;10.25;7.82;;;;;;;13.30;100.00;100132.94;5114498;28;20465;-57
2022/10/01 07:33:21;;;;;;;8.55;7.70;;;;;;;13.31;100.00;100147.81;5114452;28;20073;-57
2022/10/01 07:35:48;;;;;;;12.15;8.75;;;;;;;13.27;100.00;100154.94;5113673;28;20055;-60
2022/10/01 07:38:13;;;;;;;18.42;8.23;;;;;;;13.20;100.00;100156.06;5096629;28;20047;-58
2022/10/01 07:40:38;;;;;;;13.07;8.95;;;;;;;13.16;100.00;100159.72;5093458;28;20036;-57
2022/10/01 07:43:04;;;;;;;14.13;8.90;;;;;;;13.10;100.00;100170.41;5093177;28;20052;-57
2022/10/01 07:45:29;;;;;;;13.40;8.98;;;;;;;13.05;100.00;100177.56;5093668;28;20028;-56
2022/10/01 07:47:57;;;;;;;14.73;9.25;;;;;;;13.00;100.00;100175.09;5093539;28;20032;-56
2022/10/01 07:50:23;;;;;;;16.83;9.60;;;;;;;12.94;100.00;100174.47;5093495;28;20166;-56
2022/10/01 07:52:52;;;;;;;15.32;9.88;;;;;;;12.99;100.00;100188.31;5093676;28;20112;-57
2022/10/01 07:55:19;;;;;;;12.50;9.68;;;;;;;12.93;100.00;100191.97;5093359;28;20388;-57
2022/10/01 07:57:51;;;;;;;16.08;10.00;;;;;;;12.95;100.00;100198.06;5093696;28;20032;-56
2022/10/01 08:00:18;;;;;;;14.65;9.55;;;;;;;12.93;100.00;100204.25;5093244;28;20032;-56
2022/10/01 08:02:48;;;;;;;16.95;10.00;;;;;;;12.91;100.00;100209.56;5092801;28;20024;-56
2022/10/01 08:05:16;;;;;;;13.48;9.45;;;;;;;12.94;100.00;100214.72;5093391;28;20035;-57
2022/10/01 08:07:41;;;;;;;13.90;9.95;;;;;;;12.96;100.00;100212.03;5093225;28;20038;-57
2022/10/01 08:10:06;;;;;;;16.25;10.27;;;;;;;13.10;100.00;100212.44;5093047;28;20111;-58
2022/10/01 08:12:32;;;;;;;16.00;10.15;;;;;;;13.10;100.00;100217.69;5093037;28;20335;-57
2022/10/01 08:14:57;;;;;;;15.30;10.55;;;;;;;13.14;100.00;100214.91;5093147;28;20032;-57
2022/10/01 08:17:22;;;;;;;17.00;10.43;;;;;;;13.22;100.00;100217.28;5092995;28;20067;-57
2022/10/01 08:19:48;;;;;;;12.30;9.65;;;;;;;13.34;100.00;100216.84;5093166;28;20112;-58
2022/10/01 08:22:13;;;;;;;13.15;9.27;;;;;;;13.46;100.00;100223.47;5093062;28;20495;-57
2022/10/01 08:24:38;;;;;;;11.63;8.15;;;;;;;13.48;100.00;100230.41;5092825;28;20051;-59
2022/10/01 08:27:04;;;;;;;10.25;8.52;;;;;;;13.51;100.00;100235.53;5092928;28;20043;-57
2022/10/01 08:29:32;;;;;;;13.25;8.50;;;;;;;13.52;100.00;100231.13;5092764;28;20436;-57
2022/10/01 08:31:58;;;;;;;10.50;8.10;;;;;;;13.52;100.00;100246.91;5092846;28;20119;-57
2022/10/01 08:34:23;;;;;;;13.65;8.10;;;;;;;13.66;100.00;100241.19;5074876;28;20185;-57
2022/10/01 08:36:50;;;;;;;11.57;7.25;;;;;;;13.76;100.00;100240.78;5092796;28;20101;-57
2022/10/01 08:39:16;;;;;;;10.20;6.43;;;;;;;13.77;100.00;100249.53;5092658;28;20425;-58
2022/10/01 08:42:03;;;;;;;10.55;6.22;;;;;;;13.75;100.00;100246.09;5092731;28;20060;-61
2022/10/01 08:44:36;;;;;;;8.93;4.95;;;;;;;13.71;100.00;100252.38;5092677;28;20048;-56
2022/10/01 08:47:12;;;;;;;6.72;4.65;;;;;;;13.64;100.00;100248.25;5092704;28;20039;-55
2022/10/01 08:49:43;;;;;;;6.55;4.53;;;;;;;13.73;100.00;100250.53;5091970;28;20032;-57
2022/10/01 08:52:22;;;;;;;9.13;4.85;;;;;;;13.94;100.00;100257.66;5092342;28;20035;-55
2022/10/01 08:54:55;;;;;;;7.28;4.00;;;;;;;14.05;100.00;100258.13;5092524;28;20032;-55
2022/10/01 08:57:24;;;;;;;10.50;4.05;;;;;;;14.03;100.00;100265.22;5092478;28;20028;-56
2022/10/01 09:00:07;;;;;;;5.78;3.55;;;;;;;13.92;100.00;100262.13;5092384;28;20369;-55
2022/10/01 09:02:39;;;;;;;5.28;3.47;;;;;;;13.75;100.00;100264.50;5092018;28;20602;-56
2022/10/01 09:05:22;;;;;;;7.38;4.25;;;;;;;13.80;100.00;100267.84;5092269;28;20036;-55
2022/10/01 09:07:57;;;;;;;9.05;3.85;;;;;;;13.99;100.00;100274.16;5092308;28;20035;-56
2022/10/01 09:10:46;;;;;;;7.85;4.28;;;;;;;14.06;100.00;100278.25;5092369;28;20028;-55
2022/10/01 09:13:39;;;;;;;11.35;4.80;;;;;;;14.29;100.00;100277.41;5092119;28;20028;-56
2022/10/01 09:16:10;;;;;;;11.00;4.70;;;;;;;14.53;100.00;100280.94;5092005;28;20169;-55
2022/10/01 09:18:54;;;;;;;18.40;6.30;;;;;;;14.68;100.00;100290.88;5092165;28;20032;-56
2022/10/01 09:21:49;;;;;;;9.23;4.40;;;;;;;14.81;100.00;100286.81;5091921;28;20062;-55
2022/10/01 09:24:24;;;;;;;12.80;4.70;;;;;;;14.92;100.00;100294.28;5082366;28;20074;-56
2022/10/01 09:26:50;;;;;;;15.05;4.65;;;;;;;14.97;100.00;100305.50;5092054;28;20138;-55
2022/10/01 09:29:39;;;;;;;17.52;4.93;;;;;;;15.23;100.00;100301.84;5091960;28;20529;-56
2022/10/01 09:32:05;;;;;;;13.75;4.68;;;;;;;15.40;100.00;100293.22;5091759;28;20039;-56
2022/10/01 09:34:38;;;;;;;16.75;4.45;;;;;;;15.55;100.00;100295.22;5091788;28;20101;-54
2022/10/01 09:37:14;;;;;;;18.13;4.68;;;;;;;15.79;100.00;100303.84;5091923;28;20036;-56
2022/10/01 09:40:05;;;;;;;13.38;3.88;;;;;;;15.92;100.00;100305.06;5091845;28;20126;-54
2022/10/01 09:42:31;;;;;;;17.00;4.18;;;;;;;16.00;100.00;100308.19;5091598;28;20052;-56
2022/10/01 09:44:57;;;;;;;10.68;2.70;;;;;;;16.06;100.00;100302.66;5091552;28;20060;-55
2022/10/01 09:47:27;;;;;;;17.50;3.30;;;;;;;15.98;100.00;100300.34;5091610;28;20117;-56
2022/10/01 09:49:53;;;;;;;12.55;2.70;;;;;;;15.94;100.00;100300.53;5091719;28;20043;-56
2022/10/01 09:52:30;;;;;;;11.48;2.80;;;;;;;15.80;100.00;100305.56;5091548;28;20492;-55
2022/10/01 09:55:00;;;;;;;14.05;2.78;;;;;;;15.64;100.00;100297.47;5091680;28;20043;-55
2022/10/01 09:57:32;;;;;;;11.70;2.83;;;;;;;15.73;100.00;100302.38;5091667;28;20043;-56
2022/10/01 10:00:03;;;;;;;14.65;2.53;;;;;;;15.93;100.00;100306.78;5093810;28;20028;-54
2022/10/01 10:02:39;;;;;;;13.97;3.20;;;;;;;16.12;100.00;100310.28;5095842;28;20032;-56
2022/10/01 10:05:08;;;;;;;13.43;2.70;;;;;;;16.40;100.00;100309.06;5095841;28;20406;-56
2022/10/01 10:07:34;;;;;;;15.32;2.85;;;;;;;16.30;100.00;100324.44;5077767;28;20362;-56
2022/10/01 10:10:20;;;;;;;22.95;3.65;;;;;;;16.13;100.00;100321.69;5095697;28;20055;-56
2022/10/01 10:12:54;;;;;;;15.88;3.63;;;;;;;15.97;100.00;100324.16;5095752;28;20044;-56
2022/10/01 10:15:21;;;;;;;13.55;2.83;;;;;;;15.90;100.00;100343.84;5095591;28;20057;-55
2022/10/01 10:17:51;;;;;;;12.18;2.65;;;;;;;15.66;100.00;100346.59;5095469;28;20406;-56
2022/10/01 10:20:29;;;;;;;14.00;2.28;;;;;;;15.54;100.00;100351.50;5095423;28;20054;-54
2022/10/01 10:23:05;;;;;;;14.80;2.47;;;;;;;15.51;100.00;100352.50;5095358;28;20051;-56
2022/10/01 10:25:30;;;;;;;14.52;2.70;;;;;;;15.82;100.00;100354.72;5095404;28;20484;-56
2022/10/01 10:27:58;;;;;;;15.80;2.67;;;;;;;16.20;100.00;100350.41;5095249;28;20040;-56
2022/10/01 10:30:25;;;;;;;12.18;2.33;;;;;;;16.43;100.00;100354.69;5095092;28;20089;-54
2022/10/01 10:32:52;;;;;;;12.05;2.58;;;;;;;16.60;100.00;100354.78;5095178;28;20130;-56
2022/10/01 10:35:27;;;;;;;14.75;2.42;;;;;;;16.75;100.00;100353.22;5095127;28;20523;-57
2022/10/01 10:37:56;;;;;;;15.60;2.47;;;;;;;16.74;100.00;100364.72;5095171;28;20559;-56
2022/10/01 10:40:25;;;;;;;15.82;2.40;;;;;;;16.68;99.40;100362.34;5094801;28;20039;-54
2022/10/01 10:42:55;;;;;;;11.38;2.53;;;;;;;16.84;100.00;100376.56;5094681;28;20182;-56
2022/10/01 10:45:32;;;;;;;12.40;2.78;;;;;;;17.02;99.42;100370.41;5094914;28;20522;-55
2022/10/01 10:47:58;;;;;;;10.88;2.40;;;;;;;17.25;97.32;100371.13;5095193;28;20085;-55
2022/10/01 10:50:34;;;;;;;10.18;2.00;;;;;;;17.49;96.80;100383.13;5095047;28;20040;-55
2022/10/01 10:53:11;;;;;;;9.50;2.25;;;;;;;17.77;94.18;100385.31;5094788;28;20063;-56
2022/10/01 10:55:38;;;;;;;12.48;2.42;;;;;;;18.02;93.15;100393.69;5094485;28;20093;-56
2022/10/01 10:58:10;;;;;;;13.23;2.25;;;;;;;18.28;93.27;100408.25;5094868;28;20028;-55
2022/10/01 11:00:46;;;;;;;13.65;3.15;;;;;;;17.48;93.87;100396.44;5094860;28;20101;-57
2022/10/01 11:03:15;;;;;;;12.68;2.38;;;;;;;16.47;100.00;100403.78;5094592;28;20028;-56
2022/10/01 11:05:42;;;;;;;12.35;2.05;;;;;;;15.91;100.00;100414.19;5094315;28;20453;-57
2022/10/01 11:08:13;;;;;;;9.60;2.30;;;;;;;15.68;100.00;100411.63;5094770;28;20032;-57
2022/10/01 11:11:09;;;;;;;11.40;2.17;;;;;;;15.66;100.00;100422.25;5094069;28;20110;-57
2022/10/01 11:13:41;;;;;;;12.43;2.60;;;;;;;15.84;100.00;100425.91;5094450;28;20355;-57
2022/10/01 11:16:28;;;;;;;9.75;2.20;;;;;;;16.31;100.00;100430.00;5094251;28;20343;-57
2022/10/01 11:19:02;;;;;;;10.50;2.15;;;;;;;16.72;98.38;100426.50;5094461;28;20042;-57
2022/10/01 11:21:39;;;;;;;12.40;2.53;;;;;;;16.84;93.52;100425.94;5094254;28;20404;-57
2022/10/01 11:24:21;;;;;;;10.18;2.17;;;;;;;17.16;93.37;100432.34;5094311;28;20051;-57
2022/10/01 11:26:57;;;;;;;10.48;2.13;;;;;;;17.43;92.55;100431.06;5093905;28;20043;-57